createdAt,value
2019-04-19T00:01:55.334Z,14.90
2019-04-19T00:04:20.219Z,12.03
2019-04-19T00:07:01.443Z,13.50
2019-04-19T00:09:34.647Z,13.13
2019-04-19T00:12:06.589Z,15.73
2019-04-19T00:14:29.346Z,22.43
2019-04-19T00:16:59.688Z,15.57
2019-04-19T00:19:45.184Z,18.33
2019-04-19T00:22:18.514Z,23.87
2019-04-19T00:24:33.427Z,15.00
2019-04-19T00:27:04.026Z,11.60
2019-04-19T00:29:44.854Z,15.80
2019-04-19T00:32:20.692Z,11.17
2019-04-19T00:34:39.868Z,13.17
2019-04-19T00:37:11.937Z,13.00
2019-04-19T00:40:20.023Z,13.90
2019-04-19T00:43:05.286Z,11.00
2019-04-19T00:46:09.225Z,15.63
2019-04-19T00:48:42.365Z,10.33
2019-04-19T00:51:09.770Z,12.33
2019-04-19T00:53:40.997Z,17.40
2019-04-19T00:56:12.473Z,12.40
2019-04-19T00:58:37.464Z,17.13
2019-04-19T01:01:13.483Z,15.30
2019-04-19T01:03:43.631Z,13.70
2019-04-19T01:06:14.147Z,11.20
2019-04-19T01:08:51.864Z,13.23
2019-04-19T01:11:27.626Z,25.07
2019-04-19T01:14:01.088Z,13.83
2019-04-19T01:16:28.934Z,14.30
2019-04-19T01:18:56.144Z,14.87
2019-04-19T01:21:19.519Z,13.50
2019-04-19T01:23:53.975Z,12.43
2019-04-19T01:26:21.525Z,11.77
2019-04-19T01:29:00.274Z,12.00
2019-04-19T01:31:26.307Z,11.43
2019-04-19T01:33:54.692Z,22.43
2019-04-19T01:36:30.561Z,13.63
2019-04-19T01:39:16.566Z,11.13
2019-04-19T01:41:41.804Z,11.47
2019-04-19T01:44:29.021Z,16.83
2019-04-19T01:47:03.107Z,12.13
2019-04-19T01:49:49.264Z,13.17
2019-04-19T01:52:37.117Z,14.53
2019-04-19T01:54:54.349Z,15.07
2019-04-19T01:57:14.099Z,15.97
2019-04-19T01:59:48.402Z,15.97
2019-04-19T02:02:17.891Z,19.17
2019-04-19T02:04:47.598Z,13.93
2019-04-19T02:07:22.328Z,17.10
2019-04-19T02:10:02.785Z,19.20
2019-04-19T02:12:34.536Z,13.70
2019-04-19T02:14:59.508Z,15.43
2019-04-19T02:17:27.588Z,11.23
2019-04-19T02:20:00.533Z,11.87
2019-04-19T02:22:32.755Z,12.67
2019-04-19T02:25:00.435Z,19.10
2019-04-19T02:27:34.067Z,16.23
2019-04-19T02:30:11.225Z,14.57
2019-04-19T02:32:50.969Z,21.70
2019-04-19T02:35:47.897Z,15.47
2019-04-19T02:37:57.416Z,22.23
2019-04-19T02:43:06.829Z,14.60
2019-04-19T02:48:07.760Z,14.73
2019-04-19T02:51:02.000Z,16.00
2019-04-19T02:55:50.156Z,19.00
2019-04-19T03:00:58.582Z,13.40
2019-04-19T03:05:53.369Z,12.17
2019-04-19T03:08:06.245Z,16.03
2019-04-19T03:10:49.875Z,14.00
2019-04-19T03:13:21.800Z,13.40
2019-04-19T03:16:09.726Z,16.27
2019-04-19T03:20:54.248Z,15.63
2019-04-19T03:23:26.334Z,13.77
2019-04-19T03:25:54.652Z,17.77
2019-04-19T03:28:25.700Z,18.40
2019-04-19T03:31:20.429Z,13.53
2019-04-19T03:36:11.899Z,15.80
2019-04-19T03:38:40.452Z,15.93
2019-04-19T03:41:27.367Z,14.03
2019-04-19T03:43:51.777Z,16.37
2019-04-19T03:46:22.886Z,16.50
2019-04-19T03:48:51.545Z,16.33
2019-04-19T03:51:24.645Z,11.47
2019-04-19T03:54:16.123Z,19.20
2019-04-19T03:56:43.719Z,17.83
2019-04-19T03:58:42.267Z,14.30
2019-04-19T04:01:12.901Z,24.67
2019-04-19T04:03:46.139Z,15.57
2019-04-19T04:06:23.079Z,17.27
2019-04-19T04:08:53.642Z,11.40
2019-04-19T04:11:28.085Z,18.93
2019-04-19T04:14:16.947Z,28.73
2019-04-19T04:16:43.845Z,17.40
2019-04-19T04:19:10.300Z,14.03
2019-04-19T04:21:46.376Z,19.37
2019-04-19T04:24:20.796Z,13.97
2019-04-19T04:26:56.127Z,22.43
2019-04-19T04:29:23.709Z,13.20
2019-04-19T04:31:59.483Z,18.47
2019-04-19T04:34:32.399Z,15.93
2019-04-19T04:37:09.823Z,22.03
2019-04-19T04:39:22.359Z,16.63
2019-04-19T04:42:05.709Z,11.50
2019-04-19T04:44:44.402Z,14.10
2019-04-19T04:47:33.902Z,12.83
2019-04-19T04:50:11.999Z,14.10
2019-04-19T04:52:37.026Z,13.53
2019-04-19T04:55:09.571Z,12.43
2019-04-19T04:57:47.709Z,14.97
2019-04-19T05:00:11.907Z,14.50
2019-04-19T05:02:59.065Z,15.73
2019-04-19T05:05:31.621Z,18.77
2019-04-19T05:08:09.154Z,19.33
2019-04-19T05:10:33.379Z,23.53
2019-04-19T05:15:40.331Z,12.57
2019-04-19T05:18:18.252Z,18.10
2019-04-19T05:20:40.985Z,16.77
2019-04-19T05:23:12.260Z,13.90
2019-04-19T05:25:49.045Z,13.30
2019-04-19T05:28:16.744Z,16.03
2019-04-19T05:30:40.200Z,13.10
2019-04-19T05:33:09.888Z,10.43
2019-04-19T05:35:54.286Z,16.10
2019-04-19T05:38:51.842Z,16.30
2019-04-19T05:41:35.018Z,23.80
2019-04-19T05:46:53.504Z,16.83
2019-04-19T05:49:19.378Z,11.93
2019-04-19T05:51:55.385Z,16.27
2019-04-19T05:54:13.204Z,13.77
2019-04-19T05:56:45.106Z,15.40
2019-04-19T05:59:21.458Z,15.00
2019-04-19T06:01:59.104Z,13.40
2019-04-19T06:04:34.648Z,12.70
2019-04-19T06:07:09.424Z,13.47
2019-04-19T06:09:21.800Z,15.80
2019-04-19T06:11:51.751Z,14.77
2019-04-19T06:14:45.406Z,15.20
2019-04-19T06:17:29.302Z,11.63
2019-04-19T06:20:04.633Z,16.27
2019-04-19T06:22:37.078Z,15.20
2019-04-19T06:25:10.250Z,16.63
2019-04-19T06:27:51.447Z,14.20
2019-04-19T06:30:16.142Z,21.47
2019-04-19T06:32:46.125Z,13.17
2019-04-19T06:35:09.925Z,12.67
2019-04-19T06:37:28.550Z,13.80
2019-04-19T06:40:03.858Z,14.60
2019-04-19T06:42:35.955Z,22.20
2019-04-19T06:45:19.991Z,15.83
2019-04-19T06:47:38.928Z,13.57
2019-04-19T06:50:04.860Z,16.53
2019-04-19T06:52:36.735Z,18.00
2019-04-19T06:55:14.084Z,13.80
2019-04-19T06:57:50.076Z,11.53
2019-04-19T07:00:22.740Z,14.13
2019-04-19T07:02:41.790Z,16.77
2019-04-19T07:05:23.281Z,16.97
2019-04-19T07:08:10.061Z,13.23
2019-04-19T07:10:42.715Z,13.87
2019-04-19T07:13:05.837Z,27.83
2019-04-19T07:15:53.528Z,25.57
2019-04-19T07:18:06.257Z,15.60
2019-04-19T07:20:33.949Z,11.27
2019-04-19T07:23:06.849Z,13.63
2019-04-19T07:25:48.974Z,13.37
2019-04-19T07:28:08.066Z,15.73
2019-04-19T07:30:28.925Z,11.70
2019-04-19T07:33:05.877Z,11.60
2019-04-19T07:35:54.213Z,14.50
2019-04-19T07:40:54.161Z,11.10
2019-04-19T07:43:23.642Z,20.83
2019-04-19T07:46:08.469Z,16.23
2019-04-19T07:48:42.753Z,12.40
2019-04-19T07:51:20.227Z,14.57
2019-04-19T07:53:48.868Z,20.43
2019-04-19T07:56:27.321Z,19.00
2019-04-19T07:59:13.214Z,11.77
2019-04-19T08:01:54.532Z,16.97
2019-04-19T08:04:40.577Z,22.63
2019-04-19T08:06:58.286Z,11.20
2019-04-19T08:09:18.807Z,21.07
2019-04-19T08:14:22.859Z,15.50
2019-04-19T08:17:30.492Z,15.03
2019-04-19T08:29:22.439Z,11.50
2019-04-19T08:31:40.261Z,12.40
2019-04-19T08:34:17.648Z,14.07
2019-04-19T08:36:53.124Z,14.80
2019-04-19T08:39:33.839Z,17.57
2019-04-19T08:42:12.099Z,16.30
2019-04-19T08:44:34.800Z,18.50
2019-04-19T08:47:21.276Z,17.87
2019-04-19T08:50:02.724Z,13.60
2019-04-19T08:52:36.856Z,12.20
2019-04-19T08:55:26.017Z,12.37
2019-04-19T08:57:37.447Z,12.50
2019-04-19T09:00:41.101Z,18.97
2019-04-19T09:02:50.367Z,15.67
2019-04-19T09:05:26.980Z,13.60
2019-04-19T09:08:08.476Z,11.53
2019-04-19T09:10:33.554Z,13.07
2019-04-19T09:13:18.178Z,16.90
2019-04-19T09:15:33.084Z,13.70
2019-04-19T09:18:26.169Z,15.50
2019-04-19T09:20:44.475Z,9.17
2019-04-19T09:23:13.039Z,20.10
2019-04-19T09:25:40.963Z,10.63
2019-04-19T09:28:33.450Z,14.17
2019-04-19T09:30:52.300Z,13.60
2019-04-19T09:33:13.555Z,10.50
2019-04-19T09:35:52.278Z,13.50
2019-04-19T09:38:21.415Z,22.13
2019-04-19T09:40:50.377Z,12.10
2019-04-19T09:43:30.035Z,13.50
2019-04-19T09:45:46.921Z,9.20
2019-04-19T09:48:37.904Z,9.10
2019-04-19T09:51:04.660Z,14.60
2019-04-19T09:53:46.910Z,9.13
2019-04-19T09:56:13.438Z,7.23
2019-04-19T09:58:40.532Z,9.53
2019-04-19T10:01:06.833Z,9.10
2019-04-19T10:03:44.093Z,17.43
2019-04-19T10:06:10.765Z,18.20
2019-04-19T10:08:41.996Z,9.43
2019-04-19T10:11:12.708Z,7.70
2019-04-19T10:13:43.922Z,9.93
2019-04-19T10:16:40.025Z,11.23
2019-04-19T10:19:11.533Z,13.40
2019-04-19T10:21:54.184Z,10.93
2019-04-19T10:24:24.802Z,8.63
2019-04-19T10:27:07.305Z,9.20
2019-04-19T10:29:40.679Z,10.30
2019-04-19T10:32:44.574Z,13.80
2019-04-19T10:35:15.512Z,10.80
2019-04-19T10:37:46.018Z,9.40
2019-04-19T10:40:17.469Z,8.97
2019-04-19T10:42:47.682Z,12.17
2019-04-19T10:45:18.384Z,12.73
2019-04-19T10:47:49.367Z,10.57
2019-04-19T10:50:33.435Z,11.80
2019-04-19T10:52:52.550Z,7.63
2019-04-19T10:55:24.721Z,19.77
2019-04-19T10:57:54.609Z,11.80
2019-04-19T11:00:25.132Z,7.93
2019-04-19T11:02:55.025Z,8.77
2019-04-19T11:05:28.976Z,11.97
2019-04-19T11:07:59.349Z,7.93
2019-04-19T11:10:29.522Z,12.40
2019-04-19T11:13:00.539Z,10.33
2019-04-19T11:15:30.794Z,14.60
2019-04-19T11:18:01.544Z,8.17
2019-04-19T11:20:40.248Z,15.93
2019-04-19T11:23:03.883Z,11.30
2019-04-19T11:25:35.696Z,16.50
2019-04-19T11:28:07.026Z,9.70
2019-04-19T11:30:48.956Z,12.73
2019-04-19T11:33:23.479Z,8.03
2019-04-19T11:35:55.377Z,12.63
2019-04-19T11:38:26.997Z,9.83
2019-04-19T11:40:58.585Z,9.30
2019-04-19T11:43:29.783Z,9.37
2019-04-19T11:46:02.113Z,12.70
2019-04-19T11:48:34.802Z,9.20
2019-04-19T11:51:05.687Z,8.83
2019-04-19T11:53:40.772Z,9.43
2019-04-19T11:56:54.286Z,9.80
2019-04-19T11:59:34.173Z,11.63
2019-04-19T12:01:59.888Z,8.40
2019-04-19T12:04:30.163Z,8.07
2019-04-19T12:07:00.773Z,9.70
2019-04-19T12:09:30.783Z,11.20
2019-04-19T12:12:00.578Z,5.70
2019-04-19T12:14:31.553Z,22.50
2019-04-19T12:17:02.817Z,12.60
2019-04-19T12:19:41.400Z,13.50
2019-04-19T12:22:05.460Z,9.33
2019-04-19T12:24:36.071Z,12.83
2019-04-19T12:27:07.435Z,13.70
2019-04-19T12:29:44.175Z,10.77
2019-04-19T12:32:09.544Z,8.57
2019-04-19T12:34:40.420Z,13.17
2019-04-19T12:37:11.065Z,13.57
2019-04-19T12:39:41.144Z,10.60
2019-04-19T12:42:28.205Z,10.00
2019-04-19T12:44:58.130Z,7.23
2019-04-19T12:47:28.957Z,12.27
2019-04-19T12:50:05.691Z,11.73
2019-04-19T12:52:31.426Z,9.30
2019-04-19T12:55:01.920Z,9.40
2019-04-19T12:57:36.331Z,11.23
2019-04-19T13:00:07.845Z,7.90
2019-04-19T13:03:02.147Z,9.70
2019-04-19T13:05:37.455Z,11.10
2019-04-19T13:08:07.590Z,16.07
2019-04-19T13:10:38.481Z,9.47
2019-04-19T13:13:09.776Z,10.30
2019-04-19T13:15:40.656Z,9.00
2019-04-19T13:18:10.358Z,13.73
2019-04-19T13:20:41.919Z,11.43
2019-04-19T13:23:12.527Z,11.97
2019-04-19T13:25:42.358Z,12.00
2019-04-19T13:28:13.271Z,15.43
2019-04-19T13:30:50.766Z,8.27
2019-04-19T13:33:16.412Z,7.37
2019-04-19T13:35:46.585Z,11.80
2019-04-19T13:38:32.968Z,12.17
2019-04-19T13:41:20.960Z,30.33
2019-04-19T13:43:51.103Z,13.53
2019-04-19T13:46:22.293Z,7.93
2019-04-19T13:48:52.618Z,13.00
2019-04-19T13:51:22.802Z,8.57
2019-04-19T13:53:54.432Z,10.73
2019-04-19T13:56:24.871Z,8.90
2019-04-19T13:58:55.895Z,11.73
2019-04-19T14:01:25.897Z,16.73
2019-04-19T14:03:55.679Z,11.60
2019-04-19T14:06:26.527Z,6.47
2019-04-19T14:08:57.543Z,9.20
2019-04-19T14:11:28.927Z,8.47
2019-04-19T14:14:00.784Z,15.57
2019-04-19T14:16:30.374Z,12.13
2019-04-19T14:19:00.576Z,6.60
2019-04-19T14:21:32.852Z,12.90
2019-04-19T14:24:03.789Z,8.50
2019-04-19T14:26:39.767Z,8.23
2019-04-19T14:29:05.758Z,5.30
2019-04-19T14:31:36.569Z,12.37
2019-04-19T14:34:06.832Z,8.77
2019-04-19T14:36:38.571Z,9.17
2019-04-19T14:39:09.061Z,6.57
2019-04-19T14:41:41.412Z,7.80
2019-04-19T14:44:11.419Z,6.37
2019-04-19T14:46:41.303Z,6.70
2019-04-19T14:49:11.234Z,6.83
2019-04-19T14:51:42.780Z,6.60
2019-04-19T14:54:12.682Z,5.93
2019-04-19T14:56:43.450Z,7.83
2019-04-19T14:59:13.426Z,7.87
2019-04-19T15:02:08.942Z,16.00
2019-04-19T15:04:42.953Z,6.57
2019-04-19T15:07:12.710Z,8.40
2019-04-19T15:09:43.852Z,5.63
2019-04-19T15:12:13.908Z,7.03
2019-04-19T15:14:44.723Z,6.50
2019-04-19T15:17:15.795Z,11.00
2019-04-19T15:19:46.682Z,6.70
2019-04-19T15:22:16.891Z,12.10
2019-04-19T15:24:47.263Z,7.17
2019-04-19T15:27:18.981Z,5.10
2019-04-19T15:29:49.255Z,8.63
2019-04-19T15:32:20.249Z,10.73
2019-04-19T15:34:51.644Z,7.70
2019-04-19T15:37:22.096Z,7.13
2019-04-19T15:39:53.865Z,8.70
2019-04-19T15:42:24.731Z,7.80
2019-04-19T15:44:55.225Z,7.27
2019-04-19T15:47:26.428Z,7.03
2019-04-19T15:49:57.847Z,9.40
2019-04-19T15:52:30.223Z,18.80
2019-04-19T15:55:00.206Z,8.30
2019-04-19T15:57:30.377Z,8.70
2019-04-19T16:00:02.260Z,7.70
2019-04-19T16:02:38.478Z,8.93
2019-04-19T16:05:26.624Z,8.33
2019-04-19T16:08:16.084Z,7.03
2019-04-19T16:11:04.597Z,9.00
2019-04-19T16:13:38.249Z,7.93
2019-04-19T16:16:08.283Z,7.30
2019-04-19T16:18:38.330Z,9.23
2019-04-19T16:21:20.103Z,4.93
2019-04-19T16:23:40.150Z,8.43
2019-04-19T16:26:10.916Z,5.07
2019-04-19T16:28:41.908Z,12.33
2019-04-19T16:31:12.531Z,7.20
2019-04-19T16:33:43.863Z,7.33
2019-04-19T16:36:18.915Z,6.83
2019-04-19T16:38:49.151Z,9.13
2019-04-19T16:41:24.706Z,7.97
2019-04-19T16:43:55.771Z,6.53
2019-04-19T16:46:30.154Z,7.57
2019-04-19T16:48:58.496Z,6.53
2019-04-19T16:51:37.631Z,9.87
2019-04-19T16:54:00.886Z,16.63
2019-04-19T16:56:33.443Z,7.00
2019-04-19T16:59:05.175Z,7.60
2019-04-19T17:01:35.221Z,10.90
2019-04-19T17:04:05.864Z,7.83
2019-04-19T17:06:36.453Z,6.60
2019-04-19T17:09:10.936Z,9.33
2019-04-19T17:11:41.993Z,7.10
2019-04-19T17:14:12.471Z,9.50
2019-04-19T17:16:56.838Z,5.50
2019-04-19T17:19:31.000Z,9.20
2019-04-19T17:22:09.024Z,7.00
2019-04-19T17:24:34.641Z,10.63
2019-04-19T17:27:04.940Z,4.50
2019-04-19T17:29:35.271Z,6.37
2019-04-19T17:32:05.861Z,5.37
2019-04-19T17:34:36.214Z,8.17
2019-04-19T17:37:06.432Z,5.40
2019-04-19T17:39:36.373Z,5.13
2019-04-19T17:42:06.485Z,8.80
2019-04-19T17:44:37.427Z,7.80
2019-04-19T17:47:10.306Z,5.10
2019-04-19T17:49:40.492Z,6.53
2019-04-19T17:52:20.856Z,12.33
2019-04-19T17:55:01.279Z,6.10
2019-04-19T17:57:15.406Z,6.20
2019-04-19T17:59:46.516Z,4.50
2019-04-19T18:02:17.042Z,3.97
2019-04-19T18:04:48.159Z,3.07
2019-04-19T18:07:18.929Z,7.90
2019-04-19T18:09:54.576Z,2.93
2019-04-19T18:12:21.140Z,5.03
2019-04-19T18:14:53.315Z,4.00
2019-04-19T18:17:24.263Z,3.70
2019-04-19T18:19:54.226Z,7.63
2019-04-19T18:22:37.945Z,4.53
2019-04-19T18:24:58.498Z,6.57
2019-04-19T18:27:28.391Z,5.70
2019-04-19T18:30:03.281Z,5.23
2019-04-19T18:32:36.257Z,5.23
2019-04-19T18:35:15.170Z,6.07
2019-04-19T18:37:41.575Z,3.70
2019-04-19T18:40:13.032Z,4.47
2019-04-19T18:42:51.138Z,8.50
2019-04-19T18:45:20.963Z,5.63
2019-04-19T18:47:47.281Z,6.10
2019-04-19T18:50:18.177Z,10.93
2019-04-19T18:52:58.777Z,9.07
2019-04-19T18:55:29.591Z,5.70
2019-04-19T18:57:54.160Z,9.93
2019-04-19T19:00:26.855Z,16.93
2019-04-19T19:03:00.348Z,10.77
2019-04-19T19:05:28.095Z,6.37
2019-04-19T19:08:01.983Z,7.40
2019-04-19T19:10:39.024Z,6.80
2019-04-19T19:13:02.379Z,8.60
2019-04-19T19:15:41.910Z,7.37
2019-04-19T19:18:04.284Z,6.67
2019-04-19T19:20:36.937Z,6.90
2019-04-19T19:23:20.142Z,8.33
2019-04-19T19:25:48.160Z,9.07
2019-04-19T19:28:17.185Z,10.33
2019-04-19T19:30:48.775Z,16.57
2019-04-19T19:33:36.541Z,5.20
2019-04-19T19:36:06.688Z,10.70
2019-04-19T19:38:48.876Z,6.43
2019-04-19T19:41:54.617Z,8.87
2019-04-19T19:43:59.740Z,7.23
2019-04-19T19:46:40.109Z,5.53
2019-04-19T19:49:31.123Z,5.20
2019-04-19T19:51:36.494Z,6.03
2019-04-19T19:54:38.930Z,3.03
2019-04-19T19:56:49.074Z,2.83
2019-04-19T19:59:15.736Z,3.50
2019-04-19T20:01:49.546Z,2.73
2019-04-19T20:04:09.726Z,4.90
2019-04-19T20:06:49.052Z,2.70
2019-04-19T20:09:22.359Z,7.03
2019-04-19T20:11:47.963Z,8.23
2019-04-19T20:14:21.973Z,4.60
2019-04-19T20:16:53.897Z,6.93
2019-04-19T20:19:24.294Z,8.73
2019-04-19T20:22:01.728Z,14.43
2019-04-19T20:24:40.140Z,7.20
2019-04-19T20:27:09.527Z,3.37
2019-04-19T20:29:33.297Z,5.63
2019-04-19T20:32:09.692Z,6.77
2019-04-19T20:34:37.472Z,5.13
2019-04-19T20:37:13.066Z,4.90
2019-04-19T20:39:45.479Z,5.07
2019-04-19T20:42:25.209Z,2.07
2019-04-19T20:44:57.529Z,2.73
2019-04-19T20:47:20.509Z,3.07
2019-04-19T20:49:51.123Z,4.70
2019-04-19T20:52:40.404Z,2.23
2019-04-19T20:55:21.800Z,3.37
2019-04-19T20:57:52.472Z,2.97
2019-04-19T21:00:20.973Z,7.50
2019-04-19T21:02:59.346Z,7.60
2019-04-19T21:05:42.565Z,2.80
2019-04-19T21:08:12.180Z,2.17
2019-04-19T21:10:42.663Z,7.30
2019-04-19T21:13:15.945Z,3.17
2019-04-19T21:15:58.377Z,2.97
2019-04-19T21:18:32.677Z,5.13
2019-04-19T21:21:09.290Z,2.80
2019-04-19T21:23:40.687Z,3.37
2019-04-19T21:26:21.538Z,2.60
2019-04-19T21:28:50.807Z,1.93
2019-04-19T21:31:27.017Z,2.80
2019-04-19T21:33:57.762Z,2.70
2019-04-19T21:36:27.874Z,2.83
2019-04-19T21:39:02.123Z,3.83
2019-04-19T21:41:33.234Z,11.10
2019-04-19T21:44:00.713Z,3.03
2019-04-19T21:46:33.365Z,10.07
2019-04-19T21:49:11.062Z,4.53
2019-04-19T21:51:36.385Z,6.80
2019-04-19T21:54:06.430Z,6.07
2019-04-19T21:56:40.363Z,2.33
2019-04-19T21:59:09.018Z,7.77
2019-04-19T22:01:46.004Z,7.13
2019-04-19T22:04:17.158Z,2.60
2019-04-19T22:06:53.926Z,5.30
2019-04-19T22:09:21.965Z,5.10
2019-04-19T22:11:50.314Z,3.37
2019-04-19T22:14:24.806Z,3.03
2019-04-19T22:16:54.733Z,5.87
2019-04-19T22:19:28.422Z,7.07
2019-04-19T22:21:56.743Z,5.23
2019-04-19T22:24:32.364Z,3.83
2019-04-19T22:26:59.636Z,3.80
2019-04-19T22:29:31.416Z,3.63
2019-04-19T22:32:08.540Z,6.83
2019-04-19T22:34:34.682Z,5.40
2019-04-19T22:37:06.757Z,3.73
2019-04-19T22:39:39.272Z,4.70
2019-04-19T22:42:10.566Z,4.60
2019-04-19T22:44:40.822Z,2.90
2019-04-19T22:47:16.612Z,8.30
2019-04-19T22:49:45.737Z,3.33
2019-04-19T22:52:16.478Z,3.93
2019-04-19T22:54:46.687Z,3.03
2019-04-19T22:57:21.744Z,2.33
2019-04-19T22:59:56.389Z,6.77
2019-04-19T23:02:48.615Z,4.07
2019-04-19T23:05:25.109Z,4.80
2019-04-19T23:07:59.072Z,3.60
2019-04-19T23:10:39.965Z,7.43
2019-04-19T23:13:02.965Z,8.07
2019-04-19T23:15:35.986Z,5.90
2019-04-19T23:18:12.730Z,4.97
2019-04-19T23:20:37.124Z,3.57
2019-04-19T23:23:14.782Z,3.97
2019-04-19T23:25:43.394Z,5.03
2019-04-19T23:28:18.820Z,10.23
2019-04-19T23:30:43.306Z,5.90
2019-04-19T23:33:18.090Z,4.47
2019-04-19T23:35:45.286Z,12.20
2019-04-19T23:38:20.807Z,4.80
2019-04-19T23:40:48.759Z,4.67
2019-04-19T23:43:27.960Z,7.93
2019-04-19T23:45:51.316Z,4.77
2019-04-19T23:48:24.893Z,3.87
2019-04-19T23:50:54.566Z,3.93
2019-04-19T23:53:32.915Z,5.00
2019-04-19T23:55:56.360Z,8.10
2019-04-19T23:58:29.532Z,6.93
